createdAt,value
2022-09-30T00:00:56.169Z,5.93
2022-09-30T00:01:58.450Z,6.93
2022-09-30T00:03:01.234Z,7.13
2022-09-30T00:04:04.572Z,6.93
2022-09-30T00:05:06.955Z,7.15
2022-09-30T00:06:09.330Z,5.80
2022-09-30T00:07:11.578Z,6.70
2022-09-30T00:08:13.784Z,6.53
2022-09-30T00:09:16.655Z,6.53
2022-09-30T00:10:19.004Z,5.95
2022-09-30T00:11:25.261Z,7.68
2022-09-30T00:12:27.457Z,6.53
2022-09-30T00:13:31.320Z,6.47
2022-09-30T00:14:33.673Z,7.50
2022-09-30T00:15:35.838Z,7.15
2022-09-30T00:16:38.178Z,6.03
2022-09-30T00:17:40.411Z,5.55
2022-09-30T00:18:43.782Z,4.55
2022-09-30T00:19:47.064Z,5.70
2022-09-30T00:20:49.225Z,4.80
2022-09-30T00:21:51.412Z,5.72
2022-09-30T00:22:53.703Z,5.53
2022-09-30T00:23:56.460Z,5.32
2022-09-30T00:24:58.668Z,4.70
2022-09-30T00:26:03.493Z,4.80
2022-09-30T00:27:05.707Z,5.20
2022-09-30T00:28:08.103Z,5.80
2022-09-30T00:29:11.640Z,5.07
2022-09-30T00:30:13.964Z,5.35
2022-09-30T00:31:18.991Z,5.43
2022-09-30T00:32:21.387Z,4.78
2022-09-30T00:33:23.588Z,5.55
2022-09-30T00:34:25.828Z,4.57
2022-09-30T00:35:28.118Z,5.65
2022-09-30T00:36:30.319Z,5.32
2022-09-30T00:37:32.543Z,6.10
2022-09-30T00:38:34.761Z,5.85
2022-09-30T00:39:37.490Z,6.15
2022-09-30T00:40:40.254Z,4.60
2022-09-30T00:41:43.668Z,4.65
2022-09-30T00:42:46.291Z,4.60
2022-09-30T00:43:53.460Z,4.65
2022-09-30T00:45:03.146Z,4.72
2022-09-30T00:46:06.269Z,5.07
2022-09-30T00:47:42.260Z,5.18
2022-09-30T00:48:46.433Z,4.85
2022-09-30T00:49:49.579Z,4.45
2022-09-30T00:50:55.439Z,4.80
2022-09-30T00:51:58.329Z,5.43
2022-09-30T00:53:15.896Z,4.95
2022-09-30T00:54:23.800Z,4.88
2022-09-30T00:55:48.248Z,4.65
2022-09-30T00:56:55.584Z,5.30
2022-09-30T00:57:59.878Z,4.93
2022-09-30T00:59:31.254Z,4.60
2022-09-30T01:00:33.589Z,4.97
2022-09-30T01:01:39.816Z,5.13
2022-09-30T01:02:42.078Z,6.05
2022-09-30T01:04:00.257Z,5.65
2022-09-30T01:05:02.976Z,5.53
2022-09-30T01:06:05.654Z,4.70
2022-09-30T01:07:08.844Z,5.40
2022-09-30T01:08:11.310Z,4.88
2022-09-30T01:09:14.076Z,5.00
2022-09-30T01:10:16.500Z,5.80
2022-09-30T01:11:18.721Z,5.07
2022-09-30T01:12:25.037Z,4.90
2022-09-30T01:13:32.136Z,5.20
2022-09-30T01:14:35.127Z,6.35
2022-09-30T01:16:06.624Z,6.15
2022-09-30T01:17:17.979Z,4.93
2022-09-30T01:18:38.613Z,5.47
2022-09-30T01:19:58.106Z,5.88
2022-09-30T01:21:37.653Z,6.10
2022-09-30T01:23:16.894Z,5.60
2022-09-30T01:24:30.959Z,5.72
2022-09-30T01:25:59.130Z,5.55
2022-09-30T01:27:21.642Z,6.13
2022-09-30T01:29:00.649Z,6.78
2022-09-30T01:30:11.348Z,5.72
2022-09-30T01:31:27.992Z,5.68
2022-09-30T01:32:43.762Z,5.45
2022-09-30T01:33:46.143Z,6.22
2022-09-30T01:35:20.636Z,5.38
2022-09-30T01:36:28.507Z,6.00
2022-09-30T01:38:02.634Z,5.65
2022-09-30T01:39:13.468Z,5.53
2022-09-30T01:40:30.479Z,4.90
2022-09-30T01:41:49.175Z,5.18
2022-09-30T01:42:56.068Z,6.43
2022-09-30T01:44:09.807Z,6.72
2022-09-30T01:45:38.145Z,5.70
2022-09-30T01:46:57.788Z,5.50
2022-09-30T01:48:21.591Z,5.57
2022-09-30T01:49:41.107Z,5.88
2022-09-30T01:50:53.924Z,6.20
2022-09-30T01:51:56.225Z,6.00
2022-09-30T01:53:26.171Z,5.50
2022-09-30T01:54:48.182Z,5.40
2022-09-30T01:56:10.491Z,6.53
2022-09-30T01:57:39.980Z,5.88
2022-09-30T01:58:52.636Z,4.75
2022-09-30T02:00:00.171Z,5.07
2022-09-30T02:01:08.656Z,6.93
2022-09-30T02:02:25.491Z,4.97
2022-09-30T02:03:49.257Z,5.53
2022-09-30T02:05:07.261Z,5.30
2022-09-30T02:06:15.381Z,5.03
2022-09-30T02:07:28.960Z,5.80
2022-09-30T02:08:41.413Z,5.10
2022-09-30T02:11:00.410Z,5.93
2022-09-30T02:12:12.973Z,5.40
2022-09-30T02:13:21.878Z,5.40
2022-09-30T02:14:32.523Z,5.25
2022-09-30T02:15:40.786Z,5.93
2022-09-30T02:16:53.362Z,5.80
2022-09-30T02:18:03.527Z,6.38
2022-09-30T02:19:44.774Z,6.15
2022-09-30T02:20:51.311Z,5.43
2022-09-30T02:22:08.139Z,5.25
2022-09-30T02:23:19.514Z,4.93
2022-09-30T02:24:25.184Z,5.40
2022-09-30T02:25:32.836Z,6.45
2022-09-30T02:26:40.722Z,6.07
2022-09-30T02:27:49.063Z,7.35
2022-09-30T02:28:56.591Z,8.32
2022-09-30T02:30:03.904Z,9.63
2022-09-30T02:31:11.041Z,8.30
2022-09-30T02:32:31.796Z,8.68
2022-09-30T02:33:42.722Z,8.93
2022-09-30T02:34:51.202Z,9.30
2022-09-30T02:35:59.311Z,7.85
2022-09-30T02:37:26.466Z,9.75
2022-09-30T02:38:33.340Z,11.73
2022-09-30T02:39:57.529Z,8.82
2022-09-30T02:41:08.127Z,7.82
2022-09-30T02:42:20.335Z,9.23
2022-09-30T02:43:22.739Z,10.82
2022-09-30T02:44:25.242Z,34.90
2022-09-30T02:45:31.138Z,118.90
2022-09-30T02:46:48.332Z,64.40
2022-09-30T02:47:53.109Z,33.95
2022-09-30T02:49:21.156Z,13.65
2022-09-30T02:50:32.091Z,7.45
2022-09-30T02:51:52.781Z,6.30
2022-09-30T02:53:06.757Z,5.93
2022-09-30T02:54:23.119Z,5.20
2022-09-30T02:55:35.213Z,6.18
2022-09-30T02:56:50.054Z,6.95
2022-09-30T02:58:02.670Z,6.35
2022-09-30T02:59:04.923Z,7.10
2022-09-30T03:00:11.953Z,10.18
2022-09-30T03:01:16.780Z,9.00
2022-09-30T03:02:21.250Z,8.20
2022-09-30T03:03:40.964Z,8.57
2022-09-30T03:04:46.231Z,8.00
2022-09-30T03:05:52.050Z,6.65
2022-09-30T03:06:54.422Z,6.22
2022-09-30T03:07:57.374Z,6.00
2022-09-30T03:08:59.669Z,6.10
2022-09-30T03:10:01.998Z,6.00
2022-09-30T03:11:05.492Z,6.93
2022-09-30T03:12:16.366Z,5.80
2022-09-30T03:13:28.378Z,5.40
2022-09-30T03:15:00.998Z,5.68
2022-09-30T03:16:34.755Z,5.90
2022-09-30T03:18:07.232Z,6.50
2022-09-30T03:19:46.095Z,5.75
2022-09-30T03:21:09.519Z,6.03
2022-09-30T03:23:08.722Z,6.90
2022-09-30T03:24:34.566Z,5.93
2022-09-30T03:26:01.827Z,7.05
2022-09-30T03:27:42.902Z,7.10
2022-09-30T03:29:20.023Z,7.05
2022-09-30T03:30:27.021Z,7.45
2022-09-30T03:31:56.894Z,8.52
2022-09-30T03:33:10.022Z,9.90
2022-09-30T03:34:22.630Z,8.55
2022-09-30T03:35:48.898Z,9.05
2022-09-30T03:36:55.274Z,8.82
2022-09-30T03:38:13.167Z,9.52
2022-09-30T03:39:50.407Z,9.25
2022-09-30T03:41:27.413Z,7.40
2022-09-30T03:42:39.406Z,7.95
2022-09-30T03:43:49.250Z,6.95
2022-09-30T03:45:03.123Z,6.80
2022-09-30T03:46:29.991Z,6.90
2022-09-30T03:47:36.483Z,7.25
2022-09-30T03:48:41.107Z,7.10
2022-09-30T03:49:49.004Z,8.80
2022-09-30T03:50:52.964Z,9.30
2022-09-30T03:51:58.516Z,9.93
2022-09-30T03:53:01.656Z,9.52
2022-09-30T03:54:10.026Z,9.35
2022-09-30T03:55:12.512Z,10.88
2022-09-30T03:56:14.701Z,10.35
2022-09-30T03:57:16.969Z,9.98
2022-09-30T03:58:23.237Z,12.70
2022-09-30T03:59:28.457Z,13.15
2022-09-30T04:00:33.018Z,12.93
2022-09-30T04:01:35.255Z,14.98
2022-09-30T04:02:37.658Z,16.35
2022-09-30T04:03:39.953Z,15.50
2022-09-30T04:04:42.782Z,16.13
2022-09-30T04:05:45.991Z,15.00
2022-09-30T04:06:48.248Z,15.32
2022-09-30T04:07:50.398Z,16.05
2022-09-30T04:08:53.947Z,14.52
2022-09-30T04:09:56.381Z,12.18
2022-09-30T04:10:58.576Z,11.40
2022-09-30T04:12:00.878Z,13.98
2022-09-30T04:13:03.081Z,17.15
2022-09-30T04:14:05.924Z,19.85
2022-09-30T04:15:08.492Z,17.90
2022-09-30T04:16:10.733Z,18.63
2022-09-30T04:17:13.003Z,18.73
2022-09-30T04:18:15.167Z,18.85
2022-09-30T04:19:17.395Z,21.00
2022-09-30T04:20:19.704Z,20.05
2022-09-30T04:21:22.257Z,19.25
2022-09-30T04:22:26.595Z,19.05
2022-09-30T04:23:28.888Z,18.17
2022-09-30T04:24:31.073Z,14.52
2022-09-30T04:25:33.251Z,15.65
2022-09-30T04:26:35.420Z,15.68
2022-09-30T04:27:38.179Z,19.20
2022-09-30T04:28:40.666Z,16.02
2022-09-30T04:29:43.091Z,17.77
2022-09-30T04:30:45.349Z,18.63
2022-09-30T04:31:47.548Z,16.17
2022-09-30T04:32:50.027Z,18.45
2022-09-30T04:33:56.947Z,18.98
2022-09-30T04:34:59.135Z,23.50
2022-09-30T04:36:01.972Z,22.05
2022-09-30T04:37:08.559Z,20.20
2022-09-30T04:38:12.877Z,17.92
2022-09-30T04:39:15.119Z,22.40
2022-09-30T04:40:17.555Z,25.77
2022-09-30T04:41:20.535Z,23.08
2022-09-30T04:42:22.805Z,28.83
2022-09-30T04:43:25.037Z,25.90
2022-09-30T04:44:27.348Z,25.23
2022-09-30T04:45:30.075Z,19.00
2022-09-30T04:46:34.393Z,18.83
2022-09-30T04:47:36.599Z,18.73
2022-09-30T04:48:39.027Z,22.52
2022-09-30T04:49:41.249Z,22.77
2022-09-30T04:50:43.429Z,25.50
2022-09-30T04:51:46.155Z,23.70
2022-09-30T04:52:48.477Z,17.42
2022-09-30T04:53:50.662Z,19.55
2022-09-30T04:54:54.044Z,18.30
2022-09-30T04:56:00.325Z,21.92
2022-09-30T04:57:02.517Z,26.45
2022-09-30T04:58:04.662Z,23.50
2022-09-30T04:59:07.050Z,24.23
2022-09-30T05:00:10.144Z,22.98
2022-09-30T05:01:15.877Z,21.83
2022-09-30T05:02:18.181Z,30.83
2022-09-30T05:03:20.346Z,24.50
2022-09-30T05:04:22.540Z,25.75
2022-09-30T05:05:24.756Z,23.70
2022-09-30T05:06:26.947Z,23.67
2022-09-30T05:07:31.287Z,23.60
2022-09-30T05:08:34.187Z,21.55
2022-09-30T05:09:36.494Z,21.85
2022-09-30T05:10:40.057Z,24.00
2022-09-30T05:11:42.588Z,20.77
2022-09-30T05:12:45.830Z,20.38
2022-09-30T05:13:49.241Z,21.33
2022-09-30T05:14:51.480Z,20.33
2022-09-30T05:15:53.822Z,19.95
2022-09-30T05:16:56.427Z,19.00
2022-09-30T05:17:58.629Z,16.02
2022-09-30T05:19:00.829Z,18.15
2022-09-30T05:20:05.060Z,18.95
2022-09-30T05:21:07.776Z,19.23
2022-09-30T05:22:10.084Z,19.83
2022-09-30T05:23:12.525Z,19.75
2022-09-30T05:24:14.991Z,15.60
2022-09-30T05:25:17.862Z,13.75
2022-09-30T05:26:20.345Z,13.70
2022-09-30T05:27:24.781Z,16.48
2022-09-30T05:28:27.959Z,14.18
2022-09-30T05:29:30.492Z,13.60
2022-09-30T05:30:32.867Z,14.18
2022-09-30T05:31:35.703Z,16.35
2022-09-30T05:32:37.980Z,13.15
2022-09-30T05:33:41.679Z,14.60
2022-09-30T05:34:43.946Z,15.57
2022-09-30T05:35:46.195Z,14.00
2022-09-30T05:36:48.457Z,12.52
2022-09-30T05:37:50.708Z,17.20
2022-09-30T05:38:53.772Z,15.57
2022-09-30T05:39:55.958Z,18.45
2022-09-30T05:40:59.958Z,15.65
2022-09-30T05:42:02.649Z,16.95
2022-09-30T05:43:05.939Z,18.60
2022-09-30T05:44:09.247Z,18.52
2022-09-30T05:45:11.769Z,18.85
2022-09-30T05:46:19.592Z,19.23
2022-09-30T05:47:25.240Z,29.00
2022-09-30T05:48:27.939Z,28.17
2022-09-30T05:49:30.630Z,23.98
2022-09-30T05:50:33.736Z,19.77
2022-09-30T05:51:36.716Z,19.75
2022-09-30T05:52:39.159Z,21.38
2022-09-30T05:53:42.245Z,17.92
2022-09-30T05:54:44.870Z,19.17
2022-09-30T05:55:48.530Z,18.02
2022-09-30T05:56:50.833Z,20.30
2022-09-30T05:57:53.066Z,18.83
2022-09-30T05:58:55.645Z,15.85
2022-09-30T05:59:58.442Z,18.42
2022-09-30T06:01:13.216Z,16.73
2022-09-30T06:02:16.915Z,21.83
2022-09-30T06:03:19.762Z,16.70
2022-09-30T06:04:22.738Z,16.95
2022-09-30T06:05:25.981Z,17.65
2022-09-30T06:06:28.881Z,17.90
2022-09-30T06:07:32.949Z,16.42
2022-09-30T06:08:35.554Z,17.85
2022-09-30T06:09:37.921Z,18.17
2022-09-30T06:10:42.458Z,15.75
2022-09-30T06:11:44.683Z,17.85
2022-09-30T06:12:46.906Z,17.60
2022-09-30T06:13:49.858Z,17.73
2022-09-30T06:14:52.022Z,18.83
2022-09-30T06:16:02.023Z,18.52
2022-09-30T06:17:05.087Z,19.33
2022-09-30T06:18:07.971Z,17.55
2022-09-30T06:19:10.199Z,16.98
2022-09-30T06:20:12.697Z,16.27
2022-09-30T06:21:16.855Z,15.15
2022-09-30T06:22:19.076Z,16.38
2022-09-30T06:23:21.518Z,17.38
2022-09-30T06:24:23.922Z,18.77
2022-09-30T06:25:28.294Z,18.55
2022-09-30T06:26:30.473Z,17.08
2022-09-30T06:27:37.123Z,17.65
2022-09-30T06:28:39.813Z,17.55
2022-09-30T06:29:42.070Z,16.77
2022-09-30T06:30:44.619Z,17.85
2022-09-30T06:31:46.831Z,16.10
2022-09-30T06:32:49.140Z,17.15
2022-09-30T06:33:54.348Z,16.67
2022-09-30T06:34:56.610Z,20.85
2022-09-30T06:35:59.702Z,18.48
2022-09-30T06:37:01.953Z,19.95
2022-09-30T06:38:04.199Z,18.35
2022-09-30T06:39:09.124Z,21.30
2022-09-30T06:40:15.082Z,18.77
2022-09-30T06:41:17.539Z,19.17
2022-09-30T06:42:19.976Z,19.17
2022-09-30T06:43:22.157Z,20.77
2022-09-30T06:44:24.538Z,21.27
2022-09-30T06:45:32.676Z,19.25
2022-09-30T06:46:41.169Z,18.02
2022-09-30T06:47:59.638Z,20.17
2022-09-30T06:50:24.746Z,17.08
2022-09-30T06:51:32.567Z,16.17
2022-09-30T06:52:34.750Z,19.25
2022-09-30T06:53:39.851Z,19.35
2022-09-30T06:54:43.616Z,18.73
2022-09-30T06:55:46.183Z,17.50
2022-09-30T06:56:48.888Z,18.27
2022-09-30T06:57:51.140Z,16.65
2022-09-30T06:58:53.733Z,17.00
2022-09-30T06:59:56.201Z,15.45
2022-09-30T07:01:04.234Z,15.25
2022-09-30T07:02:06.600Z,17.00
2022-09-30T07:03:21.904Z,16.27
2022-09-30T07:04:24.809Z,15.82
2022-09-30T07:05:27.119Z,16.48
2022-09-30T07:06:29.324Z,16.58
2022-09-30T07:07:34.741Z,16.20
2022-09-30T07:08:38.832Z,16.45
2022-09-30T07:09:43.223Z,15.57
2022-09-30T07:10:47.127Z,15.52
2022-09-30T07:11:49.357Z,14.85
2022-09-30T07:12:52.687Z,15.27
2022-09-30T07:13:55.451Z,15.85
2022-09-30T07:15:00.202Z,14.60
2022-09-30T07:16:02.557Z,14.20
2022-09-30T07:17:06.334Z,15.38
2022-09-30T07:18:08.592Z,15.63
2022-09-30T07:19:11.251Z,16.40
2022-09-30T07:20:14.731Z,18.50
2022-09-30T07:21:17.667Z,16.60
2022-09-30T07:22:34.356Z,15.02
2022-09-30T07:23:36.776Z,21.40
2022-09-30T07:24:38.996Z,16.52
2022-09-30T07:25:52.465Z,17.23
2022-09-30T07:26:54.664Z,16.45
2022-09-30T07:27:57.007Z,15.73
2022-09-30T07:29:00.179Z,14.52
2022-09-30T07:30:09.791Z,19.17
2022-09-30T07:31:34.997Z,18.15
2022-09-30T07:32:38.192Z,21.48
2022-09-30T07:33:41.052Z,18.13
2022-09-30T07:34:44.060Z,21.13
2022-09-30T07:35:53.460Z,19.23
2022-09-30T07:36:55.672Z,16.00
2022-09-30T07:38:01.191Z,15.23
2022-09-30T07:39:06.954Z,14.73
2022-09-30T07:40:09.606Z,15.68
2022-09-30T07:41:17.663Z,13.63
2022-09-30T07:42:22.683Z,18.08
2022-09-30T07:43:27.901Z,17.42
2022-09-30T07:44:30.171Z,18.25
2022-09-30T07:45:32.431Z,16.55
2022-09-30T07:46:38.803Z,16.90
2022-09-30T07:47:41.321Z,17.10
2022-09-30T07:48:50.080Z,17.88
2022-09-30T07:49:52.538Z,16.67
2022-09-30T07:50:54.887Z,15.55
2022-09-30T07:51:58.692Z,16.35
2022-09-30T07:53:00.960Z,13.65
2022-09-30T07:54:09.658Z,16.05
2022-09-30T07:55:11.853Z,17.13
2022-09-30T07:56:14.682Z,16.02
2022-09-30T07:57:17.237Z,16.27
2022-09-30T07:58:19.475Z,21.05
2022-09-30T07:59:22.206Z,18.58
2022-09-30T08:00:41.538Z,16.42
2022-09-30T08:01:44.991Z,17.20
2022-09-30T08:02:47.233Z,17.08
2022-09-30T08:03:54.078Z,16.45
2022-09-30T08:04:56.283Z,15.32
2022-09-30T08:06:04.814Z,15.32
2022-09-30T08:07:06.991Z,15.10
2022-09-30T08:08:09.208Z,15.82
2022-09-30T08:09:13.163Z,15.38
2022-09-30T08:10:15.568Z,17.80
2022-09-30T08:11:17.979Z,18.20
2022-09-30T08:12:20.140Z,17.80
2022-09-30T08:13:22.348Z,16.50
2022-09-30T08:14:26.984Z,15.77
2022-09-30T08:15:29.131Z,16.40
2022-09-30T08:16:31.598Z,17.48
2022-09-30T08:17:33.862Z,17.02
2022-09-30T08:18:36.312Z,17.08
2022-09-30T08:19:41.283Z,17.42
2022-09-30T08:20:43.443Z,18.30
2022-09-30T08:21:46.652Z,15.18
2022-09-30T08:22:52.629Z,17.23
2022-09-30T08:23:54.873Z,16.83
2022-09-30T08:24:57.062Z,15.48
2022-09-30T08:26:07.491Z,16.42
2022-09-30T08:27:09.741Z,17.83
2022-09-30T08:28:12.540Z,15.70
2022-09-30T08:29:20.371Z,16.83
2022-09-30T08:30:28.432Z,16.67
2022-09-30T08:31:30.716Z,16.80
2022-09-30T08:32:32.928Z,17.98
2022-09-30T08:33:35.423Z,16.77
2022-09-30T08:34:37.667Z,18.23
2022-09-30T08:35:39.935Z,16.33
2022-09-30T08:36:42.246Z,16.40
2022-09-30T08:37:44.524Z,15.65
2022-09-30T08:38:47.432Z,16.67
2022-09-30T08:39:49.940Z,14.55
2022-09-30T08:41:07.586Z,15.13
2022-09-30T08:42:50.286Z,14.95
2022-09-30T08:44:12.228Z,14.05
2022-09-30T08:45:29.553Z,14.10
2022-09-30T08:46:44.260Z,13.93
2022-09-30T08:48:03.586Z,15.18
2022-09-30T08:49:30.505Z,15.80
2022-09-30T08:50:44.503Z,15.57
2022-09-30T08:51:50.057Z,14.30
2022-09-30T08:52:56.119Z,15.02
2022-09-30T08:54:02.461Z,13.73
2022-09-30T08:55:06.881Z,14.90
2022-09-30T08:56:19.805Z,14.20
2022-09-30T08:57:23.778Z,14.25
2022-09-30T08:58:32.893Z,14.40
2022-09-30T08:59:38.653Z,13.40
2022-09-30T09:00:47.135Z,13.13
2022-09-30T09:01:52.922Z,13.63
2022-09-30T09:03:00.586Z,12.85
2022-09-30T09:04:05.734Z,13.60
2022-09-30T09:05:13.811Z,12.85
2022-09-30T09:06:31.358Z,12.20
2022-09-30T09:07:51.794Z,11.95
2022-09-30T09:09:19.404Z,13.77
2022-09-30T09:10:44.533Z,13.20
2022-09-30T09:12:09.851Z,13.75
2022-09-30T09:13:39.340Z,13.18
2022-09-30T09:15:08.032Z,12.70
2022-09-30T09:16:13.193Z,12.93
2022-09-30T09:18:11.342Z,13.23
2022-09-30T09:19:24.501Z,11.95
2022-09-30T09:20:36.224Z,12.00
2022-09-30T09:22:04.661Z,10.47
2022-09-30T09:23:12.386Z,11.52
2022-09-30T09:24:26.340Z,11.13
2022-09-30T09:25:29.483Z,12.93
2022-09-30T09:26:36.712Z,11.80
2022-09-30T09:27:48.087Z,11.15
2022-09-30T09:29:09.172Z,10.68
2022-09-30T09:30:14.080Z,11.35
2022-09-30T09:31:19.160Z,10.77
2022-09-30T09:32:21.469Z,10.73
2022-09-30T09:33:29.553Z,9.63
2022-09-30T09:34:32.299Z,10.27
2022-09-30T09:36:23.829Z,10.25
2022-09-30T09:37:58.676Z,9.50
2022-09-30T09:39:22.513Z,9.20
2022-09-30T09:40:57.213Z,9.43
2022-09-30T09:42:12.061Z,8.90
2022-09-30T09:43:30.903Z,9.10
2022-09-30T09:44:59.742Z,9.18
2022-09-30T09:46:18.212Z,9.00
2022-09-30T09:47:21.704Z,9.43
2022-09-30T09:48:24.573Z,9.18
2022-09-30T09:49:31.407Z,10.02
2022-09-30T09:51:06.360Z,9.68
2022-09-30T09:52:14.300Z,8.18
2022-09-30T09:53:28.276Z,8.20
2022-09-30T09:54:33.940Z,8.18
2022-09-30T09:55:37.851Z,8.35
2022-09-30T09:56:40.346Z,8.43
2022-09-30T09:57:42.845Z,8.73
2022-09-30T09:59:18.056Z,9.45
2022-09-30T10:00:47.929Z,8.55
2022-09-30T10:01:54.240Z,9.55
2022-09-30T10:03:04.866Z,9.60
2022-09-30T10:04:18.867Z,9.35
2022-09-30T10:05:26.648Z,9.10
2022-09-30T10:06:43.602Z,9.02
2022-09-30T10:07:45.785Z,9.63
2022-09-30T10:08:56.098Z,9.18
2022-09-30T10:10:08.725Z,8.98
2022-09-30T10:11:27.575Z,8.48
2022-09-30T10:12:30.546Z,8.27
2022-09-30T10:13:42.389Z,9.02
2022-09-30T10:14:53.036Z,8.18
2022-09-30T10:15:57.875Z,8.35
2022-09-30T10:17:01.970Z,8.63
2022-09-30T10:18:04.259Z,8.90
2022-09-30T10:19:22.116Z,8.20
2022-09-30T10:20:30.872Z,8.93
2022-09-30T10:21:33.057Z,8.10
2022-09-30T10:22:36.531Z,9.05
2022-09-30T10:23:40.700Z,8.43
2022-09-30T10:24:43.119Z,9.60
2022-09-30T10:25:59.020Z,8.77
2022-09-30T10:27:01.436Z,8.48
2022-09-30T10:28:22.227Z,8.88
2022-09-30T10:29:31.597Z,8.38
2022-09-30T10:30:44.688Z,7.97
2022-09-30T10:31:47.172Z,8.52
2022-09-30T10:32:49.404Z,7.88
2022-09-30T10:34:01.135Z,8.10
2022-09-30T10:35:11.376Z,9.05
2022-09-30T10:36:19.508Z,8.73
2022-09-30T10:37:24.066Z,7.57
2022-09-30T10:38:29.636Z,8.57
2022-09-30T10:39:41.707Z,7.97
2022-09-30T10:40:50.968Z,7.85
2022-09-30T10:42:12.806Z,7.78
2022-09-30T10:43:21.831Z,8.10
2022-09-30T10:44:24.348Z,7.55
2022-09-30T10:45:38.511Z,8.48
2022-09-30T10:46:44.619Z,7.20
2022-09-30T10:47:50.826Z,8.18
2022-09-30T10:48:54.928Z,7.60
2022-09-30T10:50:07.063Z,7.20
2022-09-30T10:51:27.628Z,7.43
2022-09-30T10:52:37.848Z,7.35
2022-09-30T10:53:43.097Z,6.57
2022-09-30T10:54:55.537Z,7.10
2022-09-30T10:57:06.636Z,7.15
2022-09-30T10:58:39.801Z,7.55
2022-09-30T10:59:43.961Z,7.00
2022-09-30T11:00:55.125Z,7.30
2022-09-30T11:02:23.559Z,6.57
2022-09-30T11:03:37.241Z,7.25
2022-09-30T11:04:59.859Z,6.82
2022-09-30T11:06:02.371Z,7.10
2022-09-30T11:07:29.140Z,7.07
2022-09-30T11:08:49.653Z,6.97
2022-09-30T11:10:22.213Z,6.65
2022-09-30T11:11:34.525Z,7.37
2022-09-30T11:12:42.810Z,7.47
2022-09-30T11:13:59.013Z,6.90
2022-09-30T11:15:07.183Z,6.57
2022-09-30T11:16:09.461Z,6.40
2022-09-30T11:17:27.883Z,6.82
2022-09-30T11:18:45.558Z,7.38
2022-09-30T11:20:18.887Z,6.88
2022-09-30T11:21:29.655Z,5.97
2022-09-30T11:22:37.672Z,6.68
2022-09-30T11:23:52.002Z,6.43
2022-09-30T11:24:55.291Z,6.70
2022-09-30T11:26:19.199Z,6.50
2022-09-30T11:27:39.928Z,6.55
2022-09-30T11:28:51.219Z,6.20
2022-09-30T11:30:13.497Z,6.78
2022-09-30T11:31:21.590Z,6.80
2022-09-30T11:32:47.960Z,6.32
2022-09-30T11:34:20.975Z,7.25
2022-09-30T11:35:32.512Z,6.88
2022-09-30T11:36:46.805Z,6.45
2022-09-30T11:37:57.821Z,6.25
2022-09-30T11:39:05.687Z,6.28
2022-09-30T11:40:27.536Z,6.50
2022-09-30T11:42:06.216Z,6.60
2022-09-30T11:43:19.025Z,6.50
2022-09-30T11:44:34.970Z,6.57
2022-09-30T11:45:37.244Z,6.28
2022-09-30T11:47:08.450Z,6.57
2022-09-30T11:48:32.705Z,6.82
2022-09-30T11:49:56.934Z,6.53
2022-09-30T11:51:22.884Z,5.75
2022-09-30T11:52:50.805Z,7.28
2022-09-30T11:53:53.200Z,6.53
2022-09-30T11:55:27.530Z,6.38
2022-09-30T11:56:35.282Z,7.18
2022-09-30T11:58:08.372Z,7.25
2022-09-30T11:59:26.246Z,7.45
2022-09-30T12:00:30.155Z,7.07
2022-09-30T12:01:38.750Z,6.38
2022-09-30T12:02:48.111Z,7.20
2022-09-30T12:04:08.204Z,6.90
2022-09-30T12:05:27.310Z,6.30
2022-09-30T12:06:40.504Z,5.30
2022-09-30T12:08:19.922Z,6.05
2022-09-30T12:09:37.238Z,5.55
2022-09-30T12:10:44.794Z,5.78
2022-09-30T12:11:58.657Z,5.82
2022-09-30T12:13:06.788Z,5.63
2022-09-30T12:14:36.245Z,5.43
2022-09-30T12:15:43.356Z,5.28
2022-09-30T12:16:47.977Z,5.70
2022-09-30T12:17:59.007Z,5.57
2022-09-30T12:19:16.297Z,5.15
2022-09-30T12:20:34.054Z,5.88
2022-09-30T12:21:47.477Z,6.00
2022-09-30T12:22:51.930Z,6.05
2022-09-30T12:24:04.490Z,6.00
2022-09-30T12:25:23.667Z,6.28
2022-09-30T12:26:26.924Z,6.05
2022-09-30T12:27:36.109Z,5.93
2022-09-30T12:29:13.962Z,5.78
2022-09-30T12:30:20.627Z,5.90
2022-09-30T12:31:37.691Z,5.80
2022-09-30T12:32:58.501Z,5.53
2022-09-30T12:34:07.496Z,6.10
2022-09-30T12:35:28.203Z,5.10
2022-09-30T12:36:41.466Z,5.63
2022-09-30T12:37:46.408Z,5.25
2022-09-30T12:39:25.897Z,5.35
2022-09-30T12:40:56.192Z,5.68
2022-09-30T12:42:12.079Z,5.25
2022-09-30T12:43:35.797Z,4.85
2022-09-30T12:45:04.603Z,5.07
2022-09-30T12:46:21.068Z,5.18
2022-09-30T12:47:39.470Z,5.60
2022-09-30T12:49:00.071Z,4.93
2022-09-30T12:50:08.625Z,4.97
2022-09-30T12:51:25.744Z,4.93
2022-09-30T12:52:33.841Z,4.50
2022-09-30T12:53:40.599Z,5.00
2022-09-30T12:54:52.521Z,4.32
2022-09-30T12:56:02.957Z,4.60
2022-09-30T12:57:09.111Z,4.55
2022-09-30T12:58:24.491Z,4.38
2022-09-30T12:59:32.342Z,4.60
2022-09-30T13:00:36.284Z,4.35
2022-09-30T13:01:41.989Z,4.25
2022-09-30T13:02:49.260Z,5.70
2022-09-30T13:03:57.156Z,4.55
2022-09-30T13:05:34.476Z,4.32
2022-09-30T13:06:45.647Z,4.05
2022-09-30T13:08:05.945Z,4.50
2022-09-30T13:09:17.074Z,4.45
2022-09-30T13:10:30.997Z,4.50
2022-09-30T13:11:44.144Z,4.53
2022-09-30T13:12:52.564Z,4.30
2022-09-30T13:14:14.132Z,4.60
2022-09-30T13:15:39.530Z,3.95
2022-09-30T13:17:08.723Z,4.18
2022-09-30T13:18:19.935Z,3.83
2022-09-30T13:19:36.432Z,4.25
2022-09-30T13:20:57.427Z,4.35
2022-09-30T13:22:18.447Z,4.10
2022-09-30T13:23:50.473Z,4.40
2022-09-30T13:25:00.210Z,3.67
2022-09-30T13:26:03.983Z,3.83
2022-09-30T13:27:15.240Z,3.97
2022-09-30T13:28:24.433Z,3.63
2022-09-30T13:29:32.962Z,4.10
2022-09-30T13:30:36.258Z,3.67
2022-09-30T13:31:50.699Z,3.03
2022-09-30T13:32:57.458Z,3.47
2022-09-30T13:35:47.850Z,3.65
2022-09-30T13:36:49.979Z,3.78
2022-09-30T13:38:15.334Z,3.67
2022-09-30T13:39:43.864Z,3.70
2022-09-30T13:41:02.913Z,3.83
2022-09-30T13:42:14.308Z,4.40
2022-09-30T13:43:26.704Z,4.03
2022-09-30T13:51:40.230Z,3.70
2022-09-30T13:52:45.669Z,3.47
2022-09-30T13:53:51.961Z,3.13
2022-09-30T13:54:58.702Z,3.50
2022-09-30T13:56:07.222Z,3.60
2022-09-30T13:57:17.880Z,3.20
2022-09-30T13:58:19.993Z,3.17
2022-09-30T13:59:37.312Z,3.05
2022-09-30T14:01:02.943Z,3.35
2022-09-30T14:02:24.609Z,2.80
2022-09-30T14:03:51.415Z,2.75
2022-09-30T14:05:35.257Z,2.80
2022-09-30T14:06:51.716Z,3.17
2022-09-30T14:08:38.500Z,3.53
2022-09-30T14:10:06.863Z,3.35
2022-09-30T14:11:26.473Z,3.55
2022-09-30T14:12:37.648Z,3.78
2022-09-30T14:13:54.344Z,3.08
2022-09-30T14:15:24.059Z,2.80
2022-09-30T14:16:26.209Z,2.90
2022-09-30T14:17:46.275Z,3.22
2022-09-30T14:19:01.834Z,2.92
2022-09-30T14:20:29.391Z,2.95
2022-09-30T14:21:59.005Z,3.05
2022-09-30T14:23:01.997Z,3.30
2022-09-30T14:24:26.216Z,3.78
2022-09-30T14:25:38.251Z,3.40
2022-09-30T14:27:05.391Z,2.92
2022-09-30T14:28:18.058Z,2.53
2022-09-30T14:29:33.209Z,2.80
2022-09-30T14:30:40.908Z,2.40
2022-09-30T14:31:47.227Z,2.80
2022-09-30T14:32:53.296Z,2.55
2022-09-30T14:33:56.505Z,2.53
2022-09-30T14:35:00.461Z,2.58
2022-09-30T14:36:06.329Z,2.60
2022-09-30T14:37:18.501Z,2.80
2022-09-30T14:38:27.902Z,3.33
2022-09-30T14:39:32.324Z,2.70
2022-09-30T14:40:39.863Z,2.50
2022-09-30T14:41:50.619Z,2.80
2022-09-30T14:42:53.966Z,3.30
2022-09-30T14:44:02.846Z,3.25
2022-09-30T14:45:07.776Z,2.92
2022-09-30T14:46:32.515Z,3.00
2022-09-30T14:47:38.374Z,3.15
2022-09-30T14:48:45.369Z,2.80
2022-09-30T14:49:47.790Z,3.13
2022-09-30T14:51:12.336Z,2.80
2022-09-30T14:52:45.062Z,2.78
2022-09-30T14:54:03.110Z,2.70
2022-09-30T14:55:25.191Z,2.85
2022-09-30T14:56:27.317Z,3.07
2022-09-30T14:57:29.538Z,2.50
2022-09-30T14:58:40.684Z,3.05
2022-09-30T14:59:44.076Z,3.20
2022-09-30T15:01:06.205Z,2.70
2022-09-30T15:02:18.346Z,3.17
2022-09-30T15:03:20.626Z,2.80
2022-09-30T15:04:31.776Z,2.47
2022-09-30T15:05:36.221Z,2.63
2022-09-30T15:06:43.966Z,3.13
2022-09-30T15:07:46.291Z,3.40
2022-09-30T15:08:50.607Z,3.45
2022-09-30T15:09:53.584Z,3.67
2022-09-30T15:10:56.975Z,3.00
2022-09-30T15:12:17.895Z,3.65
2022-09-30T15:13:23.581Z,3.50
2022-09-30T15:14:26.411Z,2.92
2022-09-30T15:15:37.081Z,3.10
2022-09-30T15:16:46.785Z,3.25
2022-09-30T15:17:51.795Z,3.30
2022-09-30T15:18:54.765Z,3.13
2022-09-30T15:19:58.666Z,3.55
2022-09-30T15:21:09.817Z,2.75
2022-09-30T15:22:14.134Z,2.90
2022-09-30T15:23:24.983Z,2.60
2022-09-30T15:24:32.080Z,3.13
2022-09-30T15:25:34.535Z,2.95
2022-09-30T15:26:37.390Z,2.60
2022-09-30T15:27:39.893Z,2.17
2022-09-30T15:28:42.155Z,2.60
2022-09-30T15:30:00.402Z,2.90
2022-09-30T15:31:04.974Z,3.03